Terminal Aerodrome Forecast
Issued by NWS

Current Version | Previous Version | Text Only | Print | Product List | Glossary On
Versions: 1 2 3 4 5 6 7 8 9 10 11 12 13 14 15 16 17 18 19 20 21 22 23 24 25 26 27 28 29 30 31 32 33 34
482
FTUS41 KOKX 132351 CCA
TAFTEB
TAF COR
KTEB 132351Z 1400/1506 26011G20KT P6SM SCT100
     FM140200 26009KT P6SM BKN070 BKN100
     FM140300 25008KT P6SM BKN060 BKN100
      TEMPO 1403/1406 3SM -SN OVC030
     FM140600 23005KT 2SM -SN BKN024 OVC100
     FM141100 VRB03KT 3SM -SN OVC015
     FM141300 35004KT P6SM BKN022
     FM141400 33006KT P6SM BKN028
     FM141500 31007KT P6SM BKN035
     FM141600 31008KT P6SM SCT070
     FM141700 31012G20KT P6SM SCT100
     FM150200 31010KT P6SM FEW100=

USA.gov is the U.S. government's official web portal to all federal, state and local government web resources and services.